createdAt,value
2022-11-24T00:01:05.758Z,1.88
2022-11-24T00:03:33.305Z,1.57
2022-11-24T00:06:08.743Z,0.98
2022-11-24T00:08:36.332Z,0.82
2022-11-24T00:11:14.790Z,1.42
2022-11-24T00:13:41.697Z,1.10
2022-11-24T00:16:09.763Z,1.00
2022-11-24T00:18:36.689Z,2.80
2022-11-24T00:21:04.136Z,0.75
2022-11-24T00:23:31.390Z,1.05
2022-11-24T00:26:10.969Z,1.48
2022-11-24T00:28:39.154Z,1.23
2022-11-24T00:31:27.584Z,1.35
2022-11-24T00:33:56.738Z,1.17
2022-11-24T00:36:25.757Z,0.95
2022-11-24T00:38:58.270Z,1.13
2022-11-24T00:41:26.345Z,0.93
2022-11-24T00:43:55.025Z,1.45
2022-11-24T00:46:23.149Z,1.00
2022-11-24T00:48:51.148Z,1.33
2022-11-24T00:51:20.166Z,1.20
2022-11-24T00:53:47.571Z,0.83
2022-11-24T00:56:14.627Z,1.42
2022-11-24T00:58:41.351Z,1.48
2022-11-24T01:01:12.307Z,1.02
2022-11-24T01:03:39.449Z,1.55
2022-11-24T01:06:08.531Z,1.33
2022-11-24T01:08:37.683Z,1.45
2022-11-24T01:11:14.816Z,1.02
2022-11-24T01:13:43.025Z,3.08
2022-11-24T01:16:26.305Z,1.88
2022-11-24T01:18:53.817Z,1.30
2022-11-24T01:21:21.407Z,1.00
2022-11-24T01:23:48.304Z,2.15
2022-11-24T01:26:17.725Z,2.20
2022-11-24T01:28:47.471Z,1.17
2022-11-24T01:31:15.303Z,2.00
2022-11-24T01:33:41.874Z,1.17
2022-11-24T01:36:08.590Z,1.45
2022-11-24T01:38:35.323Z,1.17
2022-11-24T01:41:05.036Z,1.55
2022-11-24T01:43:32.146Z,0.70
2022-11-24T01:46:04.765Z,1.33
2022-11-24T01:48:38.912Z,1.58
2022-11-24T01:51:15.400Z,1.27
2022-11-24T01:53:45.740Z,0.98
2022-11-24T01:56:18.329Z,1.20
2022-11-24T01:58:48.090Z,1.33
2022-11-24T02:01:14.728Z,0.60
2022-11-24T02:03:46.344Z,0.75
2022-11-24T02:06:17.415Z,1.40
2022-11-24T02:08:55.900Z,0.80
2022-11-24T02:11:28.809Z,1.02
2022-11-24T02:13:57.259Z,1.13
2022-11-24T02:16:23.977Z,1.02
2022-11-24T02:18:51.183Z,0.47
2022-11-24T02:21:18.278Z,0.80
2022-11-24T02:23:49.955Z,0.50
2022-11-24T02:26:28.456Z,0.65
2022-11-24T02:28:55.530Z,1.33
2022-11-24T02:31:22.621Z,0.63
2022-11-24T02:33:50.262Z,0.40
2022-11-24T02:36:17.005Z,0.57
2022-11-24T02:38:43.518Z,0.50
2022-11-24T02:41:15.088Z,0.90
2022-11-24T02:43:47.025Z,0.82
2022-11-24T02:46:13.698Z,0.80
2022-11-24T02:48:40.394Z,0.40
2022-11-24T02:51:07.021Z,1.17
2022-11-24T02:53:33.946Z,0.98
2022-11-24T02:56:00.485Z,0.88
2022-11-24T02:58:27.999Z,0.40
2022-11-24T03:00:57.267Z,1.00
2022-11-24T03:03:24.789Z,0.82
2022-11-24T03:05:51.589Z,0.90
2022-11-24T03:08:18.382Z,1.23
2022-11-24T03:10:47.607Z,1.53
2022-11-24T03:13:14.184Z,0.80
2022-11-24T03:15:41.328Z,0.98
2022-11-24T03:18:09.010Z,1.08
2022-11-24T03:20:35.677Z,0.88
2022-11-24T03:23:02.269Z,0.80
2022-11-24T03:25:28.968Z,0.85
2022-11-24T03:27:57.407Z,0.50
2022-11-24T03:30:24.996Z,1.55
2022-11-24T03:32:53.745Z,0.50
2022-11-24T03:35:21.312Z,0.50
2022-11-24T03:37:48.189Z,1.05
2022-11-24T03:40:15.382Z,0.98
2022-11-24T03:42:42.119Z,1.05
2022-11-24T03:45:38.184Z,0.68
2022-11-24T03:47:55.745Z,0.73
2022-11-24T03:50:22.320Z,0.52
2022-11-24T03:52:48.966Z,0.90
2022-11-24T03:55:15.555Z,0.63
2022-11-24T03:57:42.374Z,0.80
2022-11-24T04:00:09.809Z,0.93
2022-11-24T04:02:36.546Z,0.93
2022-11-24T04:05:03.147Z,0.55
2022-11-24T04:07:29.757Z,0.80
2022-11-24T04:09:56.691Z,1.05
2022-11-24T04:12:42.042Z,0.60
2022-11-24T04:15:08.855Z,0.60
2022-11-24T04:17:35.387Z,0.32
2022-11-24T04:20:03.206Z,0.90
2022-11-24T04:22:30.129Z,0.93
2022-11-24T04:24:56.675Z,0.70
2022-11-24T04:27:23.969Z,1.00
2022-11-24T04:29:51.134Z,1.00
2022-11-24T04:32:17.682Z,1.30
2022-11-24T04:34:44.179Z,0.90
2022-11-24T04:37:11.244Z,0.80
2022-11-24T04:39:37.846Z,0.93
2022-11-24T04:42:04.430Z,0.65
2022-11-24T04:44:30.944Z,1.67
2022-11-24T04:46:57.538Z,0.90
2022-11-24T04:49:24.111Z,0.83
2022-11-24T04:51:50.728Z,1.50
2022-11-24T04:54:17.189Z,0.68
2022-11-24T04:56:44.161Z,1.08
2022-11-24T04:59:16.530Z,0.73
2022-11-24T05:01:44.293Z,1.63
2022-11-24T05:04:11.846Z,1.13
2022-11-24T05:06:39.794Z,1.48
2022-11-24T05:09:07.381Z,0.82
2022-11-24T05:11:34.247Z,0.70
2022-11-24T05:14:01.082Z,0.40
2022-11-24T05:16:27.594Z,1.00
2022-11-24T05:18:54.733Z,0.60
2022-11-24T05:21:21.260Z,0.30
2022-11-24T05:23:47.737Z,0.30
2022-11-24T05:26:14.371Z,0.30
2022-11-24T05:28:40.727Z,0.50
2022-11-24T05:31:07.244Z,0.20
2022-11-24T05:33:34.334Z,0.20
2022-11-24T05:36:04.309Z,0.55
2022-11-24T05:38:31.349Z,0.97
2022-11-24T05:41:02.340Z,0.35
2022-11-24T05:43:29.084Z,0.57
2022-11-24T05:45:59.276Z,0.20
2022-11-24T05:48:25.692Z,0.40
2022-11-24T05:50:58.835Z,0.40
2022-11-24T05:53:26.878Z,0.10
2022-11-24T05:55:53.490Z,0.52
2022-11-24T05:58:20.309Z,0.10
2022-11-24T06:00:47.057Z,0.10
2022-11-24T06:03:13.616Z,0.97
2022-11-24T06:05:45.395Z,0.20
2022-11-24T06:08:12.023Z,0.20
2022-11-24T06:10:38.960Z,0.30
2022-11-24T06:13:06.789Z,0.17
2022-11-24T06:15:37.894Z,0.20
2022-11-24T06:18:04.854Z,0.30
2022-11-24T06:20:33.046Z,0.10
2022-11-24T06:23:00.868Z,0.40
2022-11-24T06:25:28.720Z,0.50
2022-11-24T06:27:55.267Z,0.20
2022-11-24T06:30:25.038Z,0.20
2022-11-24T06:32:57.579Z,0.20
2022-11-24T06:35:25.718Z,0.20
2022-11-24T06:37:52.130Z,0.20
2022-11-24T06:40:18.714Z,0.50
2022-11-24T06:42:50.192Z,0.43
2022-11-24T06:45:16.760Z,0.55
2022-11-24T06:47:43.234Z,0.50
2022-11-24T06:50:11.928Z,0.32
2022-11-24T06:52:39.215Z,0.40
2022-11-24T06:55:06.337Z,0.40
2022-11-24T06:57:32.941Z,0.47
2022-11-24T06:59:59.981Z,0.90
2022-11-24T07:02:26.645Z,0.90
2022-11-24T07:04:53.757Z,1.57
2022-11-24T07:07:21.269Z,1.27
2022-11-24T07:09:47.708Z,1.80
2022-11-24T07:12:15.435Z,1.63
2022-11-24T07:14:42.186Z,2.22
2022-11-24T07:17:09.820Z,2.20
2022-11-24T07:19:36.326Z,2.00
2022-11-24T07:22:02.831Z,2.60
2022-11-24T07:24:29.335Z,3.22
2022-11-24T07:26:55.924Z,2.40
2022-11-24T07:29:22.580Z,2.83
2022-11-24T07:31:50.035Z,2.80
2022-11-24T07:34:16.519Z,2.75
2022-11-24T07:36:45.011Z,2.97
2022-11-24T07:39:11.948Z,2.70
2022-11-24T07:41:38.576Z,2.70
2022-11-24T07:44:05.194Z,3.10
2022-11-24T07:46:31.657Z,2.17
2022-11-24T07:48:58.328Z,2.83
2022-11-24T07:51:24.939Z,2.53
2022-11-24T07:53:51.575Z,2.43
2022-11-24T07:56:18.230Z,3.90
2022-11-24T07:58:51.194Z,2.35
2022-11-24T08:01:19.971Z,3.20
2022-11-24T08:03:46.942Z,3.10
2022-11-24T08:06:39.423Z,3.33
2022-11-24T08:09:01.757Z,2.65
2022-11-24T08:11:29.106Z,3.80
2022-11-24T08:13:55.770Z,2.35
2022-11-24T08:16:25.526Z,2.25
2022-11-24T08:19:08.577Z,2.70
2022-11-24T08:22:50.286Z,2.97
2022-11-24T08:25:19.503Z,2.35
2022-11-24T08:27:50.900Z,2.75
2022-11-24T08:30:20.413Z,2.40
2022-11-24T08:32:51.627Z,2.60
2022-11-24T08:35:18.429Z,2.40
2022-11-24T08:37:47.023Z,2.70
2022-11-24T08:40:18.063Z,2.63
2022-11-24T08:42:49.859Z,2.65
2022-11-24T08:45:22.466Z,2.77
2022-11-24T08:47:56.401Z,2.05
2022-11-24T08:50:49.297Z,2.78
2022-11-24T08:53:17.064Z,2.38
2022-11-24T08:55:44.132Z,1.55
2022-11-24T08:58:11.855Z,2.53
2022-11-24T09:00:42.506Z,2.45
2022-11-24T09:03:13.132Z,2.08
2022-11-24T09:10:46.785Z,2.00
2022-11-24T09:17:03.592Z,1.75
2022-11-24T09:19:42.223Z,1.50
2022-11-24T09:25:17.244Z,2.05
2022-11-24T09:27:43.888Z,1.40
2022-11-24T09:30:11.072Z,1.40
2022-11-24T09:32:41.510Z,1.25
2022-11-24T09:35:09.877Z,0.88
2022-11-24T09:37:36.727Z,1.48
2022-11-24T09:40:05.501Z,0.77
2022-11-24T09:42:53.273Z,1.10
2022-11-24T09:46:04.580Z,1.20
2022-11-24T09:48:41.502Z,1.38
2022-11-24T09:51:13.463Z,1.02
2022-11-24T09:53:57.070Z,0.83
2022-11-24T09:56:31.818Z,1.27
2022-11-24T09:59:07.099Z,0.90
2022-11-24T10:01:50.015Z,0.73
2022-11-24T10:04:18.633Z,1.13
2022-11-24T10:07:06.427Z,0.83
2022-11-24T10:10:09.141Z,0.73
2022-11-24T10:13:20.148Z,0.65
2022-11-24T10:16:28.355Z,0.77
2022-11-24T10:19:37.047Z,0.60
2022-11-24T10:22:29.305Z,0.97
2022-11-24T10:25:21.579Z,1.17
2022-11-24T10:28:05.258Z,0.80
2022-11-24T10:30:32.423Z,0.80
2022-11-24T10:33:13.256Z,0.60
2022-11-24T10:35:53.129Z,0.73
2022-11-24T10:38:43.291Z,0.73
2022-11-24T10:41:24.041Z,0.77
2022-11-24T10:43:55.917Z,0.80
2022-11-24T10:46:28.657Z,0.65
2022-11-24T10:49:03.088Z,0.70
2022-11-24T10:51:51.043Z,0.60
2022-11-24T10:54:20.373Z,0.55
2022-11-24T10:56:50.259Z,0.63
2022-11-24T10:59:41.273Z,0.88
2022-11-24T11:02:37.317Z,0.77
2022-11-24T11:05:56.854Z,0.70
2022-11-24T11:09:10.904Z,0.90
2022-11-24T11:11:40.326Z,1.25
2022-11-24T11:14:38.216Z,1.15
2022-11-24T11:17:58.586Z,1.07
2022-11-24T11:31:22.148Z,0.60
2022-11-24T11:34:22.111Z,1.03
2022-11-24T11:36:56.656Z,2.75
2022-11-24T11:39:29.484Z,1.10
2022-11-24T11:42:03.040Z,1.52
2022-11-24T11:44:40.891Z,1.75
2022-11-24T11:47:31.065Z,1.83
2022-11-24T11:50:00.428Z,1.52
2022-11-24T11:52:59.824Z,1.35
2022-11-24T11:55:51.345Z,0.98
2022-11-24T11:58:57.905Z,1.30
2022-11-24T12:02:19.735Z,1.20
2022-11-24T12:05:00.921Z,1.08
2022-11-24T12:07:41.139Z,1.27
2022-11-24T12:10:17.118Z,1.48
2022-11-24T12:13:39.519Z,1.05
2022-11-24T12:19:42.277Z,1.38
2022-11-24T12:22:56.303Z,1.10
2022-11-24T12:25:37.675Z,0.93
2022-11-24T12:28:45.765Z,1.55
2022-11-24T12:31:19.374Z,0.73
2022-11-24T12:38:45.219Z,1.33
2022-11-24T12:42:03.067Z,1.85
2022-11-24T12:48:51.079Z,1.80
2022-11-24T12:52:02.660Z,1.50
2022-11-24T13:05:49.401Z,1.03
2022-11-24T13:19:04.650Z,1.02
2022-11-24T13:21:51.135Z,1.42
2022-11-24T13:24:25.197Z,1.00
2022-11-24T13:27:20.040Z,1.30
2022-11-24T13:29:51.225Z,0.90
2022-11-24T13:32:21.176Z,1.55
2022-11-24T13:34:55.588Z,0.82
2022-11-24T13:37:35.838Z,0.90
2022-11-24T13:40:12.596Z,0.98
2022-11-24T13:43:02.615Z,0.95
2022-11-24T13:45:49.539Z,1.48
2022-11-24T13:48:21.203Z,0.90
2022-11-24T13:50:51.371Z,1.15
2022-11-24T13:53:41.704Z,1.10
2022-11-24T13:56:27.147Z,1.25
2022-11-24T13:58:58.449Z,1.38
2022-11-24T14:02:00.244Z,1.10
2022-11-24T14:07:16.988Z,1.88
2022-11-24T14:09:52.485Z,0.95
2022-11-24T14:12:23.812Z,1.05
2022-11-24T14:14:55.329Z,1.58
2022-11-24T14:17:28.564Z,0.87
2022-11-24T14:20:00.371Z,1.10
2022-11-24T14:22:42.140Z,0.77
2022-11-24T14:25:41.253Z,0.77
2022-11-24T14:28:30.922Z,1.20
2022-11-24T14:31:14.122Z,0.70
2022-11-24T14:33:46.560Z,0.93
2022-11-24T14:36:17.795Z,1.15
2022-11-24T14:38:49.008Z,1.15
2022-11-24T14:41:28.273Z,1.38
2022-11-24T14:44:45.597Z,1.35
2022-11-24T14:47:30.427Z,1.05
2022-11-24T14:50:08.221Z,0.57
2022-11-24T14:53:07.791Z,0.95
2022-11-24T14:55:42.314Z,0.93
2022-11-24T14:58:40.485Z,0.90
2022-11-24T15:01:27.015Z,0.93
2022-11-24T15:05:00.944Z,1.02
2022-11-24T15:07:26.330Z,0.47
2022-11-24T15:10:01.884Z,0.80
2022-11-24T15:12:55.218Z,0.90
2022-11-24T15:15:27.243Z,1.13
2022-11-24T15:17:58.899Z,1.45
2022-11-24T15:20:37.643Z,1.33
2022-11-24T15:23:23.561Z,1.55
2022-11-24T15:25:54.965Z,0.90
2022-11-24T15:28:28.877Z,0.68
2022-11-24T15:31:09.584Z,0.80
2022-11-24T15:33:36.449Z,0.73
2022-11-24T15:36:03.961Z,0.45
2022-11-24T15:38:31.139Z,0.77
2022-11-24T15:41:02.547Z,1.02
2022-11-24T15:43:31.863Z,0.70
2022-11-24T15:46:04.778Z,0.80
2022-11-24T15:48:31.950Z,1.02
2022-11-24T15:51:02.067Z,1.33
2022-11-24T15:53:37.673Z,0.90
2022-11-24T15:56:07.564Z,1.30
2022-11-24T15:58:44.891Z,1.40
2022-11-24T16:01:12.256Z,0.60
2022-11-24T16:03:46.896Z,1.50
2022-11-24T16:06:23.408Z,1.27
2022-11-24T16:08:51.472Z,1.50
2022-11-24T16:11:17.931Z,0.90
2022-11-24T16:13:50.083Z,0.70
2022-11-24T16:16:18.750Z,1.03
2022-11-24T16:18:45.430Z,1.20
2022-11-24T16:21:12.204Z,0.65
2022-11-24T16:23:38.627Z,1.00
2022-11-24T16:26:05.954Z,0.80
2022-11-24T16:28:33.025Z,0.43
2022-11-24T16:30:59.828Z,1.00
2022-11-24T16:33:34.728Z,1.48
2022-11-24T16:36:01.235Z,0.93
2022-11-24T16:38:27.723Z,0.85
2022-11-24T16:40:56.263Z,1.10
2022-11-24T16:43:24.402Z,1.00
2022-11-24T16:46:16.767Z,1.13
2022-11-24T16:48:45.105Z,0.88
2022-11-24T16:51:13.714Z,0.77
2022-11-24T16:53:40.930Z,0.87
2022-11-24T16:56:07.770Z,0.88
2022-11-24T16:58:37.748Z,2.55
2022-11-24T17:01:05.957Z,0.98
2022-11-24T17:03:33.805Z,1.38
2022-11-24T17:06:01.040Z,0.90
2022-11-24T17:08:31.149Z,1.40
2022-11-24T17:10:58.386Z,0.60
2022-11-24T17:13:24.989Z,1.20
2022-11-24T17:15:54.280Z,1.23
2022-11-24T17:18:25.455Z,0.80
2022-11-24T17:20:52.684Z,0.70
2022-11-24T17:23:19.694Z,1.00
2022-11-24T17:25:46.356Z,1.40
2022-11-24T17:28:14.099Z,1.52
2022-11-24T17:30:40.587Z,1.10
2022-11-24T17:33:07.049Z,1.52
2022-11-24T17:35:34.673Z,1.75
2022-11-24T17:38:02.632Z,1.20
2022-11-24T17:40:29.641Z,1.05
2022-11-24T17:43:00.314Z,2.17
2022-11-24T17:45:28.452Z,0.80
2022-11-24T17:47:58.701Z,1.05
2022-11-24T17:50:26.344Z,0.70
2022-11-24T17:52:53.890Z,1.55
2022-11-24T17:55:20.885Z,1.57
2022-11-24T17:57:47.267Z,1.75
2022-11-24T18:00:14.361Z,1.33
2022-11-24T18:02:40.913Z,1.20
2022-11-24T18:05:08.079Z,2.33
2022-11-24T18:07:37.745Z,1.13
2022-11-24T18:10:05.001Z,1.42
2022-11-24T18:12:32.995Z,1.98
2022-11-24T18:14:59.912Z,1.60
2022-11-24T18:17:26.593Z,1.13
2022-11-24T18:19:53.092Z,1.07
2022-11-24T18:22:36.730Z,0.75
2022-11-24T18:25:07.968Z,1.08
2022-11-24T18:27:35.582Z,0.90
2022-11-24T18:30:06.955Z,0.90
2022-11-24T18:32:35.931Z,1.20
2022-11-24T18:35:02.297Z,1.75
2022-11-24T18:37:33.492Z,1.25
2022-11-24T18:40:00.265Z,0.85
2022-11-24T18:42:29.035Z,1.52
2022-11-24T18:44:57.226Z,1.30
2022-11-24T18:47:23.832Z,1.00
2022-11-24T18:49:50.362Z,1.08
2022-11-24T18:52:16.803Z,1.00
2022-11-24T18:54:43.826Z,1.92
2022-11-24T18:57:10.308Z,0.97
2022-11-24T18:59:36.832Z,0.90
2022-11-24T19:02:03.315Z,1.13
2022-11-24T19:04:30.146Z,1.10
2022-11-24T19:06:56.767Z,1.17
2022-11-24T19:09:25.522Z,1.23
2022-11-24T19:11:51.947Z,1.83
2022-11-24T19:14:20.001Z,1.38
2022-11-24T19:16:49.960Z,2.42
2022-11-24T19:19:17.334Z,0.88
2022-11-24T19:21:44.010Z,0.83
2022-11-24T19:24:11.785Z,0.80
2022-11-24T19:26:38.851Z,0.73
2022-11-24T19:29:06.852Z,1.40
2022-11-24T19:31:34.215Z,0.70
2022-11-24T19:34:02.818Z,0.73
2022-11-24T19:36:29.292Z,0.68
2022-11-24T19:38:57.357Z,1.02
2022-11-24T19:41:29.724Z,1.08
2022-11-24T19:43:59.543Z,0.63
2022-11-24T19:46:29.751Z,1.23
2022-11-24T19:49:00.398Z,1.10
2022-11-24T19:51:32.013Z,1.08
2022-11-24T19:54:01.095Z,1.20
2022-11-24T19:56:30.647Z,1.20
2022-11-24T19:58:57.422Z,1.03
2022-11-24T20:01:30.008Z,1.02
2022-11-24T20:04:08.427Z,2.58
2022-11-24T20:06:37.926Z,0.70
2022-11-24T20:09:07.587Z,1.15
2022-11-24T20:11:34.111Z,0.60
2022-11-24T20:14:00.585Z,0.68
2022-11-24T20:16:31.478Z,0.80
2022-11-24T20:19:05.590Z,1.60
2022-11-24T20:21:33.520Z,0.90
2022-11-24T20:24:02.501Z,0.80
2022-11-24T20:26:31.817Z,0.40
2022-11-24T20:28:59.661Z,0.65
2022-11-24T20:31:31.575Z,1.20
2022-11-24T20:34:00.443Z,1.10
2022-11-24T20:36:30.626Z,1.20
2022-11-24T20:38:59.809Z,0.88
2022-11-24T20:41:29.161Z,0.65
2022-11-24T20:43:59.823Z,1.38
2022-11-24T20:46:29.194Z,1.20
2022-11-24T20:48:57.354Z,1.10
2022-11-24T20:51:27.113Z,1.17
2022-11-24T20:53:57.037Z,1.20
2022-11-24T20:56:26.468Z,0.90
2022-11-24T20:58:55.572Z,1.02
2022-11-24T21:01:30.350Z,0.50
2022-11-24T21:04:03.401Z,0.85
2022-11-24T21:06:30.822Z,1.52
2022-11-24T21:09:03.290Z,0.80
2022-11-24T21:11:30.641Z,1.63
2022-11-24T21:13:57.748Z,0.70
2022-11-24T21:16:24.164Z,0.90
2022-11-24T21:18:53.004Z,0.93
2022-11-24T21:21:20.997Z,0.98
2022-11-24T21:23:48.564Z,1.67
2022-11-24T21:26:17.047Z,0.63
2022-11-24T21:28:45.917Z,1.10
2022-11-24T21:31:15.930Z,0.93
2022-11-24T21:33:45.380Z,0.88
2022-11-24T21:36:14.666Z,0.57
2022-11-24T21:38:42.649Z,1.43
2022-11-24T21:41:10.875Z,0.50
2022-11-24T21:43:37.604Z,1.27
2022-11-24T21:46:07.709Z,1.15
2022-11-24T21:48:35.549Z,0.82
2022-11-24T21:51:04.458Z,1.07
2022-11-24T21:53:33.611Z,1.10
2022-11-24T21:56:01.999Z,2.25
2022-11-24T21:58:29.317Z,1.15
2022-11-24T22:01:02.837Z,1.05
2022-11-24T22:03:29.840Z,1.23
2022-11-24T22:06:01.340Z,1.00
2022-11-24T22:08:30.091Z,0.75
2022-11-24T22:11:05.677Z,1.25
2022-11-24T22:13:33.539Z,1.35
2022-11-24T22:16:06.711Z,1.00
2022-11-24T22:18:35.447Z,1.15
2022-11-24T22:21:03.058Z,0.80
2022-11-24T22:23:32.889Z,1.25
2022-11-24T22:26:08.027Z,0.73
2022-11-24T22:28:36.611Z,0.90
2022-11-24T22:31:23.348Z,0.70
2022-11-24T22:33:50.748Z,1.00
2022-11-24T22:36:20.804Z,0.80
2022-11-24T22:38:52.272Z,0.47
2022-11-24T22:41:18.757Z,0.90
2022-11-24T22:43:46.133Z,0.95
2022-11-24T22:46:22.052Z,1.20
2022-11-24T22:48:52.895Z,0.98
2022-11-24T22:51:40.691Z,0.90
2022-11-24T22:54:07.225Z,0.80
2022-11-24T22:57:03.971Z,0.68
2022-11-24T23:03:58.576Z,0.73
2022-11-24T23:06:30.666Z,0.60
2022-11-24T23:08:58.643Z,1.07
2022-11-24T23:11:38.520Z,0.60
2022-11-24T23:14:12.617Z,1.27
2022-11-24T23:16:40.615Z,0.90
2022-11-24T23:19:08.720Z,0.90
2022-11-24T23:21:40.520Z,1.10
2022-11-24T23:24:07.942Z,1.63
2022-11-24T23:26:37.853Z,2.55
2022-11-24T23:29:06.230Z,1.55
2022-11-24T23:31:33.119Z,0.98
2022-11-24T23:34:01.943Z,0.43
2022-11-24T23:36:31.264Z,1.13
2022-11-24T23:39:07.531Z,0.90
2022-11-24T23:41:34.746Z,0.70
2022-11-24T23:44:01.261Z,0.55
2022-11-24T23:46:28.882Z,1.00
2022-11-24T23:48:56.557Z,0.80
2022-11-24T23:51:33.334Z,0.80
2022-11-24T23:54:00.326Z,0.95
2022-11-24T23:56:32.559Z,0.85
2022-11-24T23:59:00.616Z,0.90
